Impacts TAF Board
For situational awareness. Not to be used for flight planning purposes.
IDs:

KACT - Waco Rgnl, TX, US

Issued at 0520 UTC 19 Aug 2019
Updated at 0612 UTC 19 Aug 2019
Potential Impact None Slight Moderate High
Time0551Z 19/07Z 19/08Z 19/09Z 19/10Z 19/11Z 19/12Z 19/13Z 19/14Z 19/15Z 19/16Z 19/17Z 19/18Z 19/19Z>>
Type OBS PRVL PRVL PRVL PRVL PRVL
  [TEMP]  
PRVL
  [TEMP]  
PRVL PRVL PRVL PRVL PRVL PRVL PRVL
VIS 10 >6 >6 >6 >6 >6 >6 >6 >6 >6 >6 >6 >6 >6
CIG -- -- -- -- -- --
  [22]  
--
  [22]  
-- -- -- -- -- -- --
Cover CLR FEW FEW FEW FEW FEW
  [BKN]  
FEW
  [BKN]  
FEW FEW FEW FEW FEW FEW FEW
FltCat VFR VFR VFR VFR VFR VFR
  [MVFR]  
VFR
  [MVFR]  
VFR VFR VFR VFR VFR VFR VFR
WX -- -- -- -- -- --
  [--]  
--
  [--]  
-- -- -- -- -- -- --
WDir 170 160 160 160 160 160
[160]
160
[160]
160 160 160 160 160 160 160
WSpd 10 11 11 11 11 11
  [11]  
11
  [11]  
11 11 11 11 11 11 11
WGst -- -- -- -- -- --
  [--]  
--
  [--]  
-- -- -- -- -- -- --
Raw TAF
KACT 190520Z 1906/2006 16011KT P6SM FEW050
  TEMPO 1911/1913 BKN022


Raw METAR
KACT 190551Z AUTO 17010KT 10SM CLR 31/22 A2992 RMK AO2 SLP122 T03060222 10367 20306 403780267 51021 $
KACT 190451Z AUTO 16014KT 10SM CLR 31/22 A2990 RMK AO2 SLP117 T03110222 $
KACT 190351Z 16013KT 10SM CLR 32/22 A2989 RMK AO2 SLP112 T03220222 $

METAR Board
Radar Display
Forecast Discussion
For situational awareness. Not to be used for flight planning purposes.